Time;durP1;ratioP1;P1;durP2;ratioP2;P2;SDS_P1;SDS_P2;PMS_P1;PMS_P2;Temp;Humidity;BMP_temperature;BMP_pressure;BME280_temperature;BME280_humidity;BME280_pressure;Samples;Min_cycle;Max_cycle;Signal;HPM_P1;HPM_P2
2022/09/09 00:00:33;;;;;;;9.48;3.80;;;;;;;13.52;100.00;100787.19;5093115;28;20145;-77
2022/09/09 00:03:14;;;;;;;10.05;4.65;;;;;;;13.53;100.00;100786.22;5093436;28;20038;-79
2022/09/09 00:05:57;;;;;;;10.85;4.38;;;;;;;13.53;100.00;100784.38;5094427;28;20467;-79
2022/09/09 00:08:44;;;;;;;8.68;4.43;;;;;;;13.52;100.00;100781.84;5097545;28;20032;-77
2022/09/09 00:11:12;;;;;;;13.25;4.68;;;;;;;13.51;100.00;100780.16;5097269;28;20034;-77
2022/09/09 00:13:46;;;;;;;11.65;5.35;;;;;;;13.49;100.00;100776.84;5096879;28;20036;-77
2022/09/09 00:16:24;;;;;;;13.32;5.43;;;;;;;13.50;100.00;100781.19;5097220;28;20079;-78
2022/09/09 00:19:01;;;;;;;11.30;5.10;;;;;;;13.48;100.00;100780.50;5097664;28;20081;-79
2022/09/09 00:21:38;;;;;;;12.32;5.15;;;;;;;13.46;100.00;100782.50;5096707;28;20063;-79
2022/09/09 00:24:41;;;;;;;16.20;6.03;;;;;;;13.43;100.00;100782.81;5078255;28;20016;-79
2022/09/09 00:27:16;;;;;;;14.10;5.70;;;;;;;13.42;100.00;100783.81;5096359;28;20020;-79
2022/09/09 00:30:08;;;;;;;16.02;6.70;;;;;;;13.45;100.00;100776.31;5096438;28;20036;-79
2022/09/09 00:32:35;;;;;;;13.75;7.40;;;;;;;13.45;100.00;100780.81;5085920;28;20036;-77
2022/09/09 00:35:28;;;;;;;13.27;7.30;;;;;;;13.46;100.00;100777.97;5096615;28;20072;-77
2022/09/09 00:38:00;;;;;;;13.82;6.95;;;;;;;13.49;100.00;100766.13;5096363;28;20031;-78
2022/09/09 00:40:34;;;;;;;15.48;7.18;;;;;;;13.46;100.00;100769.97;5097153;28;20050;-78
2022/09/09 00:43:25;;;;;;;14.38;8.00;;;;;;;13.42;100.00;100776.66;5096638;28;20020;-77
2022/09/09 00:46:25;;;;;;;14.35;7.88;;;;;;;13.40;100.00;100767.94;5096654;28;20036;-79
2022/09/09 00:49:02;;;;;;;17.73;8.30;;;;;;;13.39;100.00;100771.59;5096734;28;20032;-78
2022/09/09 00:52:04;;;;;;;15.63;8.20;;;;;;;13.34;100.00;100774.75;5096627;28;20031;-77
2022/09/09 00:54:58;;;;;;;16.00;7.80;;;;;;;13.29;100.00;100771.69;5096282;28;20028;-77
2022/09/09 00:57:31;;;;;;;13.68;7.03;;;;;;;13.23;100.00;100767.81;5096571;28;20028;-78
2022/09/09 01:00:20;;;;;;;14.65;7.70;;;;;;;13.20;100.00;100773.47;5095980;28;20471;-77
2022/09/09 01:02:56;;;;;;;13.18;6.57;;;;;;;13.16;100.00;100774.78;5095986;28;20051;-76
2022/09/09 01:05:30;;;;;;;13.70;6.88;;;;;;;13.13;100.00;100771.59;5096215;28;20040;-78
2022/09/09 01:07:58;;;;;;;14.95;7.60;;;;;;;13.10;100.00;100761.22;5095971;28;20028;-78
2022/09/09 01:11:00;;;;;;;14.75;7.53;;;;;;;13.05;100.00;100762.53;5096127;28;20028;-77
2022/09/09 01:13:31;;;;;;;14.48;7.65;;;;;;;13.01;100.00;100758.50;5093160;28;20044;-77
2022/09/09 01:15:59;;;;;;;;;;;;;;;12.98;100.00;100744.63;5096246;28;20028;-76
2022/09/09 01:18:28;;;;;;;17.95;7.75;;;;;;;12.94;100.00;100748.59;5094953;28;19964;-78
2022/09/09 01:21:20;;;;;;;14.98;7.45;;;;;;;12.89;100.00;100746.41;5095560;28;20056;-78
2022/09/09 01:24:13;;;;;;;15.85;7.07;;;;;;;12.84;100.00;100748.72;5095881;28;20091;-78
2022/09/09 01:26:42;;;;;;;11.68;7.25;;;;;;;12.77;100.00;100744.97;5095565;28;20024;-77
2022/09/09 01:29:11;;;;;;;16.92;8.10;;;;;;;12.73;100.00;100747.09;5095323;28;20063;-78
2022/09/09 01:31:39;;;;;;;12.98;6.90;;;;;;;12.69;100.00;100738.59;5095100;28;20036;-77
2022/09/09 01:34:11;;;;;;;18.23;9.27;;;;;;;12.69;100.00;100735.91;5095202;28;20020;-77
2022/09/09 01:36:45;;;;;;;13.43;8.00;;;;;;;12.65;100.00;100729.19;5095438;28;20089;-77
2022/09/09 01:39:12;;;;;;;11.32;7.30;;;;;;;12.62;100.00;100726.84;5095202;28;20085;-78
2022/09/09 01:41:38;;;;;;;15.80;7.93;;;;;;;12.59;100.00;100734.34;5095610;28;20043;-78
2022/09/09 01:44:04;;;;;;;15.63;8.25;;;;;;;12.56;100.00;100730.13;5095228;28;20035;-77
2022/09/09 01:46:30;;;;;;;17.52;8.05;;;;;;;12.52;100.00;100723.44;5095110;28;20168;-77
2022/09/09 01:48:57;;;;;;;15.80;8.85;;;;;;;12.45;100.00;100723.22;5076984;28;20032;-77
2022/09/09 01:51:23;;;;;;;14.88;8.50;;;;;;;12.41;100.00;100724.50;5095249;28;20020;-77
2022/09/09 01:53:48;;;;;;;16.60;8.15;;;;;;;12.38;100.00;100726.66;5095100;28;20036;-77
2022/09/09 01:56:25;;;;;;;14.43;8.82;;;;;;;12.34;100.00;100723.44;5094905;28;20024;-78
2022/09/09 01:59:24;;;;;;;19.13;8.55;;;;;;;12.29;100.00;100718.56;5094603;28;20024;-77
2022/09/09 02:01:55;;;;;;;14.73;7.57;;;;;;;12.27;100.00;100725.91;5095018;28;20016;-77
2022/09/09 02:04:27;;;;;;;;;;;;;;;12.27;100.00;100714.38;5095876;28;20028;-77
2022/09/09 02:06:55;;;;;;;;;;;;;;;12.27;100.00;100719.72;5094991;28;19907;-78
2022/09/09 02:09:24;;;;;;;14.23;7.72;;;;;;;12.25;100.00;100717.19;5094559;28;19919;-77
2022/09/09 02:11:59;;;;;;;11.30;6.60;;;;;;;12.22;100.00;100717.50;5094560;28;20115;-77
2022/09/09 02:14:33;;;;;;;14.32;7.05;;;;;;;12.23;100.00;100715.69;5095275;28;20024;-77
2022/09/09 02:17:09;;;;;;;17.65;7.03;;;;;;;12.22;100.00;100714.84;5094520;28;20028;-77
2022/09/09 02:19:41;;;;;;;17.25;6.63;;;;;;;12.27;100.00;100703.72;5094558;28;20369;-77
2022/09/09 02:22:06;;;;;;;13.23;5.88;;;;;;;12.30;100.00;100706.91;5076602;28;20044;-77
2022/09/09 02:24:36;;;;;;;12.82;4.85;;;;;;;12.30;100.00;100704.25;5076125;28;20131;-77
2022/09/09 02:27:05;;;;;;;11.73;4.68;;;;;;;12.33;100.00;100695.94;5094566;28;20054;-78
2022/09/09 02:29:35;;;;;;;9.38;4.20;;;;;;;12.38;100.00;100686.66;5094673;28;20036;-78
2022/09/09 02:32:06;;;;;;;9.02;3.25;;;;;;;12.40;100.00;100692.66;5094526;28;20028;-77
2022/09/09 02:34:36;;;;;;;8.70;3.55;;;;;;;12.40;100.00;100685.47;5095271;28;20036;-77
2022/09/09 02:37:03;;;;;;;6.20;2.97;;;;;;;12.42;100.00;100683.50;5094188;28;20438;-77
2022/09/09 02:39:29;;;;;;;10.13;3.17;;;;;;;12.45;100.00;100682.34;5094171;28;20032;-77
2022/09/09 02:41:54;;;;;;;8.18;2.75;;;;;;;12.45;100.00;100685.00;5094634;28;20517;-77
2022/09/09 02:44:19;;;;;;;7.28;2.53;;;;;;;12.43;100.00;100679.00;5094378;28;20024;-78
2022/09/09 02:46:58;;;;;;;8.27;3.50;;;;;;;12.40;100.00;100687.31;5094923;28;20032;-77
2022/09/09 02:49:59;;;;;;;9.57;3.17;;;;;;;12.40;100.00;100687.31;5095098;28;20024;-77
2022/09/09 02:52:37;;;;;;;9.43;3.38;;;;;;;12.42;100.00;100693.31;5069229;28;20032;-77
2022/09/09 02:55:13;;;;;;;8.05;3.15;;;;;;;12.48;100.00;100690.03;5095542;28;20077;-78
2022/09/09 02:57:41;;;;;;;8.50;3.78;;;;;;;12.55;100.00;100685.75;5094019;28;20030;-77
2022/09/09 03:00:07;;;;;;;10.80;3.58;;;;;;;12.58;100.00;100689.94;5095423;28;20486;-79
2022/09/09 03:02:33;;;;;;;9.20;3.47;;;;;;;12.59;100.00;100692.47;5096085;28;20028;-77
2022/09/09 03:04:58;;;;;;;9.25;3.00;;;;;;;12.61;100.00;100684.31;5095335;28;20070;-77
2022/09/09 03:07:23;;;;;;;7.68;3.22;;;;;;;12.61;100.00;100681.63;5094342;28;20111;-77
2022/09/09 03:09:49;;;;;;;9.82;2.75;;;;;;;12.58;100.00;100684.63;5093826;28;20460;-76
2022/09/09 03:12:14;;;;;;;9.98;3.03;;;;;;;12.56;100.00;100678.59;5094076;28;20539;-77
2022/09/09 03:14:40;;;;;;;9.30;3.03;;;;;;;12.52;100.00;100667.38;5075924;28;20032;-78
2022/09/09 03:17:06;;;;;;;7.95;3.03;;;;;;;12.49;100.00;100671.19;5093882;28;20472;-78
2022/09/09 03:19:31;;;;;;;5.43;2.55;;;;;;;12.48;100.00;100676.69;5093438;28;20468;-78
2022/09/09 03:21:58;;;;;;;11.55;3.05;;;;;;;12.46;100.00;100678.69;5093183;28;20052;-78
2022/09/09 03:24:23;;;;;;;4.15;2.28;;;;;;;12.46;100.00;100670.69;5093285;28;20467;-79
2022/09/09 03:26:50;;;;;;;11.45;2.83;;;;;;;12.47;100.00;100675.03;5075282;28;20107;-78
2022/09/09 03:29:17;;;;;;;5.57;2.75;;;;;;;12.45;100.00;100666.31;5093509;28;20032;-78
2022/09/09 03:31:42;;;;;;;11.85;3.45;;;;;;;12.45;100.00;100658.31;5075832;28;20032;-78
2022/09/09 03:34:08;;;;;;;11.18;2.90;;;;;;;12.44;100.00;100672.69;5093788;28;20032;-78
2022/09/09 03:36:33;;;;;;;9.30;3.42;;;;;;;12.42;100.00;100663.97;5094098;28;20040;-78
2022/09/09 03:39:00;;;;;;;6.97;2.53;;;;;;;12.41;100.00;100665.81;5075983;28;20044;-78
2022/09/09 03:41:26;;;;;;;6.70;2.95;;;;;;;12.42;100.00;100663.97;5092469;28;20032;-78
2022/09/09 03:43:51;;;;;;;7.10;2.50;;;;;;;12.40;100.00;100668.63;5075039;28;20382;-77
2022/09/09 03:46:18;;;;;;;7.78;2.95;;;;;;;12.38;100.00;100662.63;5093116;28;20107;-78
2022/09/09 03:48:44;;;;;;;9.43;3.05;;;;;;;12.38;100.00;100659.97;5093284;28;20559;-77
2022/09/09 03:51:10;;;;;;;10.02;3.20;;;;;;;12.38;100.00;100670.63;5092946;28;20111;-78
2022/09/09 03:53:37;;;;;;;7.50;2.90;;;;;;;12.36;100.00;100665.47;5092605;28;20067;-78
2022/09/09 03:56:04;;;;;;;11.30;3.08;;;;;;;12.38;100.00;100662.63;5092977;28;20024;-78
2022/09/09 03:58:29;;;;;;;8.75;3.25;;;;;;;12.37;100.00;100658.28;5092920;28;20020;-77
2022/09/09 04:00:55;;;;;;;8.30;2.72;;;;;;;12.37;100.00;100660.94;5093083;28;20425;-78
2022/09/09 04:03:22;;;;;;;8.55;2.95;;;;;;;12.35;100.00;100658.44;5093191;28;20031;-78
2022/09/09 04:05:49;;;;;;;12.88;2.97;;;;;;;12.33;100.00;100665.72;5092897;28;20028;-78
2022/09/09 04:08:14;;;;;;;9.27;2.90;;;;;;;12.30;100.00;100655.38;5093309;28;20036;-78
2022/09/09 04:10:40;;;;;;;10.43;2.75;;;;;;;12.29;100.00;100653.72;5092751;28;20029;-77
2022/09/09 04:13:05;;;;;;;11.40;3.15;;;;;;;12.27;100.00;100645.03;5075266;28;20032;-77
2022/09/09 04:15:31;;;;;;;9.50;3.33;;;;;;;12.25;100.00;100644.34;5093073;28;20378;-78
2022/09/09 04:17:56;;;;;;;10.68;3.10;;;;;;;12.25;100.00;100644.34;5093454;28;20111;-78
2022/09/09 04:20:22;;;;;;;9.50;3.15;;;;;;;12.27;100.00;100640.53;5092520;28;20089;-77
2022/09/09 04:22:47;;;;;;;5.50;3.00;;;;;;;12.27;100.00;100629.88;5074821;28;20051;-79
2022/09/09 04:25:13;;;;;;;8.43;2.97;;;;;;;12.31;100.00;100635.72;5093184;28;20040;-81
2022/09/09 04:27:39;;;;;;;8.40;2.95;;;;;;;12.32;100.00;100629.41;5092551;28;20101;-78
2022/09/09 04:30:05;;;;;;;8.90;2.55;;;;;;;12.34;100.00;100630.06;5092404;28;20085;-79
2022/09/09 04:32:33;;;;;;;8.65;2.65;;;;;;;12.34;100.00;100622.06;5074882;28;20051;-78
2022/09/09 04:34:58;;;;;;;7.68;2.40;;;;;;;12.39;100.00;100624.25;5093355;28;20038;-78
2022/09/09 04:37:24;;;;;;;11.57;3.15;;;;;;;12.40;100.00;100620.63;5093104;28;20055;-78
2022/09/09 04:39:50;;;;;;;9.48;2.42;;;;;;;12.41;100.00;100622.28;5092601;28;20039;-79
2022/09/09 04:42:17;;;;;;;6.90;2.28;;;;;;;12.40;100.00;100617.94;5092612;28;20024;-79
2022/09/09 04:44:43;;;;;;;6.00;2.25;;;;;;;12.39;100.00;100621.59;5092835;28;20111;-78
2022/09/09 04:47:09;;;;;;;7.25;2.45;;;;;;;12.39;100.00;100616.25;5092689;28;20028;-78
2022/09/09 04:49:36;;;;;;;8.73;2.75;;;;;;;12.41;100.00;100609.78;5092615;28;20371;-78
2022/09/09 04:52:03;;;;;;;9.07;2.50;;;;;;;12.48;100.00;100620.66;5094507;28;20032;-78
2022/09/09 04:54:28;;;;;;;8.88;2.80;;;;;;;12.47;100.00;100617.16;5096350;28;20039;-78
2022/09/09 04:56:54;;;;;;;10.85;2.58;;;;;;;12.48;100.00;100615.31;5096495;28;20036;-78
2022/09/09 04:59:21;;;;;;;7.32;2.72;;;;;;;12.47;100.00;100619.00;5096433;28;20387;-78
2022/09/09 05:01:47;;;;;;;7.13;2.40;;;;;;;12.45;100.00;100615.63;5096096;28;20039;-78
2022/09/09 05:04:12;;;;;;;9.05;2.83;;;;;;;12.43;100.00;100625.63;5061375;28;20114;-79
2022/09/09 05:06:37;;;;;;;9.30;3.17;;;;;;;12.45;100.00;100621.81;5077624;28;20396;-78
2022/09/09 05:09:03;;;;;;;11.63;3.03;;;;;;;12.48;100.00;100623.31;5095654;28;20035;-79
2022/09/09 05:11:31;;;;;;;9.43;3.00;;;;;;;12.50;100.00;100621.34;5096075;28;20028;-80
2022/09/09 05:13:57;;;;;;;4.63;2.75;;;;;;;12.50;100.00;100616.00;5077955;28;20079;-80
2022/09/09 05:16:22;;;;;;;5.50;2.72;;;;;;;12.48;100.00;100621.50;5095633;28;20032;-79
2022/09/09 05:18:50;;;;;;;8.70;3.00;;;;;;;12.48;100.00;100617.97;5077270;28;20040;-79
2022/09/09 05:21:17;;;;;;;6.85;2.97;;;;;;;12.50;100.00;100610.69;5096112;28;20138;-79
2022/09/09 05:23:42;;;;;;;10.18;3.35;;;;;;;12.49;100.00;100604.47;5095651;28;20081;-79
2022/09/09 05:26:11;;;;;;;9.75;3.70;;;;;;;12.51;100.00;100597.19;5095715;28;20032;-80
2022/09/09 05:28:37;;;;;;;10.40;3.20;;;;;;;12.57;100.00;100592.19;5095377;28;20027;-79
2022/09/09 05:31:04;;;;;;;10.77;3.80;;;;;;;12.64;100.00;100599.41;5095391;28;20028;-78
2022/09/09 05:33:31;;;;;;;8.48;3.45;;;;;;;12.74;100.00;100606.47;5095695;28;20557;-78
2022/09/09 05:35:59;;;;;;;13.10;3.75;;;;;;;12.82;100.00;100606.50;5095603;28;20055;-79
2022/09/09 05:38:25;;;;;;;12.10;3.95;;;;;;;12.88;100.00;100605.88;5095601;28;20028;-79
2022/09/09 05:40:52;;;;;;;11.20;3.10;;;;;;;12.95;100.00;100603.41;5095734;28;20036;-78
2022/09/09 05:43:17;;;;;;;9.65;3.85;;;;;;;13.03;100.00;100603.44;5095828;28;20491;-81
2022/09/09 05:45:43;;;;;;;10.25;3.33;;;;;;;13.11;100.00;100616.81;5094996;28;20056;-80
2022/09/09 05:48:08;;;;;;;18.75;3.20;;;;;;;13.18;100.00;100617.00;5095463;28;20036;-80
2022/09/09 05:50:33;;;;;;;11.60;2.92;;;;;;;13.29;100.00;100623.91;5077153;28;20062;-79
2022/09/09 05:52:59;;;;;;;10.98;2.97;;;;;;;13.38;100.00;100625.63;5077167;28;20064;-79
2022/09/09 05:55:25;;;;;;;8.55;2.90;;;;;;;13.46;100.00;100622.16;5077121;28;20448;-79
2022/09/09 05:57:51;;;;;;;12.50;2.85;;;;;;;13.51;100.00;100625.16;5095683;28;20032;-77
2022/09/09 06:00:17;;;;;;;7.63;2.70;;;;;;;13.60;100.00;100626.88;5095063;28;20036;-80
2022/09/09 06:02:43;;;;;;;9.43;3.08;;;;;;;13.66;100.00;100628.03;5094493;28;20030;-79
2022/09/09 06:05:08;;;;;;;10.30;3.42;;;;;;;13.69;100.00;100623.19;5095186;28;20076;-80
2022/09/09 06:07:34;;;;;;;13.25;2.97;;;;;;;13.75;100.00;100625.22;5094905;28;20043;-81
2022/09/09 06:09:59;;;;;;;8.43;2.65;;;;;;;13.80;100.00;100627.38;5094707;28;20053;-78
2022/09/09 06:12:25;;;;;;;8.98;2.90;;;;;;;13.85;100.00;100626.88;5094756;28;20024;-80
2022/09/09 06:14:51;;;;;;;7.72;2.33;;;;;;;13.89;100.00;100618.34;5076613;28;20047;-78
2022/09/09 06:17:17;;;;;;;10.52;3.00;;;;;;;13.92;100.00;100627.91;5094807;28;20106;-80
2022/09/09 06:19:42;;;;;;;7.53;2.40;;;;;;;13.96;100.00;100623.91;5076480;28;20039;-80
2022/09/09 06:22:09;;;;;;;7.50;2.85;;;;;;;14.01;100.00;100618.03;5094705;28;20059;-81
2022/09/09 06:24:34;;;;;;;13.40;2.70;;;;;;;14.05;100.00;100624.75;5077096;28;20056;-80
2022/09/09 06:27:00;;;;;;;11.40;2.83;;;;;;;14.08;100.00;100619.06;5094706;28;20050;-80
2022/09/09 06:29:25;;;;;;;10.75;2.90;;;;;;;14.13;100.00;100621.22;5094665;28;20061;-80
2022/09/09 06:31:50;;;;;;;11.43;3.42;;;;;;;14.16;100.00;100626.22;5076968;28;20078;-80
2022/09/09 06:34:16;;;;;;;11.43;3.22;;;;;;;14.19;100.00;100626.72;5094461;28;20024;-80
2022/09/09 06:36:42;;;;;;;8.18;2.58;;;;;;;14.21;100.00;100624.72;5094243;28;20035;-80
2022/09/09 06:39:10;;;;;;;8.57;2.65;;;;;;;14.23;100.00;100620.03;5093991;28;20043;-80
2022/09/09 06:41:36;;;;;;;10.88;2.75;;;;;;;14.27;100.00;100625.88;5094266;28;20119;-78
2022/09/09 06:44:03;;;;;;;10.15;2.67;;;;;;;14.28;100.00;100619.53;5094208;28;20068;-77
2022/09/09 06:46:32;;;;;;;7.78;2.70;;;;;;;14.29;100.00;100623.88;5076913;28;20492;-79
2022/09/09 06:48:59;;;;;;;11.73;2.83;;;;;;;14.31;100.00;100627.22;5093777;28;20513;-83
2022/09/09 06:51:30;;;;;;;8.38;2.95;;;;;;;14.31;100.00;100624.53;5094594;28;20028;-84
2022/09/09 06:53:58;;;;;;;9.95;3.35;;;;;;;14.36;100.00;100624.88;5094205;28;20384;-79
2022/09/09 06:56:32;;;;;;;8.27;3.17;;;;;;;14.38;100.00;100620.19;5094469;28;20028;-79
2022/09/09 06:59:02;;;;;;;11.77;3.17;;;;;;;14.43;100.00;100625.84;5093999;28;20025;-82
2022/09/09 07:01:30;;;;;;;11.55;2.90;;;;;;;14.47;100.00;100623.69;5094027;28;20035;-80
2022/09/09 07:03:58;;;;;;;9.77;3.00;;;;;;;14.53;100.00;100622.19;5094358;28;20035;-84
2022/09/09 07:06:44;;;;;;;13.07;2.90;;;;;;;14.55;100.00;100620.16;5093736;28;20499;-80
2022/09/09 07:09:15;;;;;;;10.45;2.92;;;;;;;14.66;100.00;100619.84;5093625;28;20031;-80
2022/09/09 07:11:48;;;;;;;9.50;3.58;;;;;;;14.71;100.00;100622.84;5094241;28;20036;-80
2022/09/09 07:14:13;;;;;;;10.75;3.10;;;;;;;14.74;100.00;100621.66;5093818;28;20495;-81
2022/09/09 07:16:43;;;;;;;13.65;3.45;;;;;;;14.71;100.00;100622.00;5074882;28;20020;-79
2022/09/09 07:19:10;;;;;;;7.82;2.80;;;;;;;14.68;100.00;100614.31;5075394;28;20118;-79
2022/09/09 07:21:36;;;;;;;12.40;3.15;;;;;;;14.64;100.00;100613.81;5094090;28;20079;-79
2022/09/09 07:24:02;;;;;;;13.77;3.40;;;;;;;14.59;100.00;100613.47;5093801;28;20070;-78
2022/09/09 07:26:29;;;;;;;11.30;2.95;;;;;;;14.55;100.00;100621.00;5093528;28;20149;-79
2022/09/09 07:28:58;;;;;;;10.35;2.85;;;;;;;14.50;100.00;100614.50;5093212;28;20054;-78
2022/09/09 07:31:30;;;;;;;12.40;3.28;;;;;;;14.44;100.00;100608.81;5093629;28;20032;-79
2022/09/09 07:33:55;;;;;;;9.32;3.22;;;;;;;14.43;100.00;100619.69;5093443;28;20123;-82
2022/09/09 07:36:26;;;;;;;13.02;3.83;;;;;;;14.41;100.00;100619.03;5093401;28;20035;-79
2022/09/09 07:38:54;;;;;;;10.65;3.00;;;;;;;14.37;100.00;100618.50;5093963;28;20024;-80
2022/09/09 07:41:27;;;;;;;7.22;2.97;;;;;;;14.38;100.00;100620.19;5093730;28;20359;-80
2022/09/09 07:43:56;;;;;;;13.02;3.95;;;;;;;14.38;100.00;100620.19;5093421;28;20024;-78
2022/09/09 07:46:25;;;;;;;12.88;3.75;;;;;;;14.40;100.00;100625.38;5093481;28;20039;-78
2022/09/09 07:48:56;;;;;;;10.82;3.22;;;;;;;14.41;100.00;100625.19;5093237;28;20032;-81
2022/09/09 07:51:24;;;;;;;8.27;2.63;;;;;;;14.43;100.00;100619.69;5093790;28;20035;-82
2022/09/09 07:53:57;;;;;;;11.45;3.28;;;;;;;14.48;100.00;100621.84;5093595;28;20110;-87
2022/09/09 07:56:23;;;;;;;7.85;2.88;;;;;;;14.53;100.00;100630.22;5093259;28;20066;-81
2022/09/09 07:58:49;;;;;;;11.75;3.35;;;;;;;14.55;100.00;100626.34;5092976;28;20060;-80
2022/09/09 08:01:17;;;;;;;11.88;3.05;;;;;;;14.59;100.00;100634.88;5075112;28;20086;-79
2022/09/09 08:03:47;;;;;;;6.50;2.80;;;;;;;14.62;100.00;100622.00;5094261;28;20051;-79
2022/09/09 08:06:13;;;;;;;14.38;3.15;;;;;;;14.69;100.00;100624.84;5093153;28;20376;-80
2022/09/09 08:08:41;;;;;;;15.10;3.30;;;;;;;14.77;100.00;100616.78;5058228;28;20451;-82
2022/09/09 08:11:15;;;;;;;10.63;3.53;;;;;;;14.84;100.00;100627.66;5092725;28;20062;-84
2022/09/09 08:13:42;;;;;;;13.55;3.00;;;;;;;14.89;100.00;100621.78;5092510;28;20376;-77
2022/09/09 08:16:14;;;;;;;8.98;2.78;;;;;;;14.96;100.00;100622.78;5093484;28;20031;-80
2022/09/09 08:18:39;;;;;;;6.15;2.50;;;;;;;14.96;100.00;100626.28;5093102;28;20027;-81
2022/09/09 08:21:08;;;;;;;9.05;2.95;;;;;;;14.96;100.00;100623.59;5092585;28;20089;-81
2022/09/09 08:23:33;;;;;;;13.85;3.38;;;;;;;14.96;100.00;100630.81;5093240;28;20073;-83
2022/09/09 08:26:04;;;;;;;15.43;2.80;;;;;;;14.94;100.00;100627.44;5093094;28;20028;-81
2022/09/09 08:28:30;;;;;;;9.50;3.05;;;;;;;14.96;100.00;100620.09;5097089;28;20032;-83
2022/09/09 08:30:56;;;;;;;10.85;2.60;;;;;;;14.96;100.00;100630.81;5096749;28;20024;-86
2022/09/09 08:33:21;;;;;;;10.75;2.85;;;;;;;14.97;100.00;100627.97;5078739;28;20392;-85
2022/09/09 08:35:50;;;;;;;9.98;2.88;;;;;;;14.93;100.00;100629.31;5078813;28;20456;-84
2022/09/09 08:38:16;;;;;;;14.52;3.05;;;;;;;14.93;100.00;100623.94;5096870;28;20032;-86
2022/09/09 08:40:49;;;;;;;11.23;3.08;;;;;;;14.92;100.00;100626.78;5078581;28;20102;-82
2022/09/09 08:43:17;;;;;;;8.73;2.60;;;;;;;14.92;100.00;100630.31;5096842;28;20036;-85
2022/09/09 08:46:06;;;;;;;5.45;2.20;;;;;;;14.95;100.00;100631.81;5097169;28;20043;-85
2022/09/09 08:48:52;;;;;;;6.97;2.45;;;;;;;15.03;100.00;100629.09;5085891;28;20488;-80
2022/09/09 08:51:18;;;;;;;7.05;2.40;;;;;;;15.16;100.00;100631.22;5096962;28;20031;-76
2022/09/09 08:53:49;;;;;;;10.10;3.15;;;;;;;15.23;100.00;100628.69;5096399;28;20039;-75
2022/09/09 08:56:19;;;;;;;10.10;3.20;;;;;;;15.25;100.00;100623.97;5096335;28;20440;-76
2022/09/09 08:58:50;;;;;;;11.35;2.60;;;;;;;15.22;100.00;100630.50;5096881;28;20032;-82
2022/09/09 09:01:43;;;;;;;12.35;2.67;;;;;;;15.17;100.00;100627.53;5095860;28;20488;-80
2022/09/09 09:04:45;;;;;;;10.30;2.60;;;;;;;15.12;100.00;100633.41;5096110;28;20028;-77
2022/09/09 09:07:55;;;;;;;10.45;2.30;;;;;;;15.11;100.00;100642.47;5096041;28;20530;-78
2022/09/09 09:10:39;;;;;;;12.00;2.88;;;;;;;15.14;100.00;100649.31;5070120;28;20044;-82
2022/09/09 09:13:17;;;;;;;9.63;2.75;;;;;;;15.13;100.00;100634.25;5096576;28;20039;-84
2022/09/09 09:15:46;;;;;;;11.77;2.67;;;;;;;15.10;100.00;100634.59;5078159;28;20081;-78
2022/09/09 09:18:13;;;;;;;13.10;3.17;;;;;;;15.09;100.00;100647.16;5095640;28;20043;-79
2022/09/09 09:21:05;;;;;;;10.20;3.22;;;;;;;14.97;100.00;100641.34;5077916;28;20032;-73
2022/09/09 09:23:42;;;;;;;10.57;2.50;;;;;;;14.83;100.00;100652.75;5096338;28;20060;-79
2022/09/09 09:26:10;;;;;;;8.07;2.95;;;;;;;14.74;100.00;100645.78;5096262;28;20028;-80
2022/09/09 09:28:36;;;;;;;12.57;3.45;;;;;;;14.75;100.00;100642.06;5095664;28;20137;-74
2022/09/09 09:31:12;;;;;;;10.70;2.58;;;;;;;14.84;100.00;100638.38;5096293;28;20095;-73
2022/09/09 09:33:40;;;;;;;12.60;2.95;;;;;;;15.00;100.00;100640.16;5096401;28;20035;-74
2022/09/09 09:36:08;;;;;;;9.30;2.90;;;;;;;15.22;100.00;100630.50;5095898;28;20039;-74
2022/09/09 09:38:35;;;;;;;8.48;2.58;;;;;;;15.43;100.00;100627.22;5094765;28;20032;-77
2022/09/09 09:41:01;;;;;;;9.30;2.63;;;;;;;15.58;100.00;100621.94;5077672;28;20047;-82
2022/09/09 09:43:35;;;;;;;11.73;3.08;;;;;;;15.63;100.00;100626.78;5077572;28;20387;-77
2022/09/09 09:46:04;;;;;;;10.65;2.65;;;;;;;15.63;100.00;100624.94;5077906;28;20410;-76
2022/09/09 09:48:30;;;;;;;11.57;2.60;;;;;;;15.68;100.00;100622.56;5078269;28;20036;-80
2022/09/09 09:51:02;;;;;;;9.00;2.05;;;;;;;15.80;100.00;100625.69;5062567;28;20028;-82
2022/09/09 09:53:33;;;;;;;7.25;2.40;;;;;;;15.83;100.00;100621.81;5097239;28;20032;-79
2022/09/09 09:56:00;;;;;;;7.32;2.20;;;;;;;15.80;100.00;100624.88;5096446;28;20020;-77
2022/09/09 09:58:46;;;;;;;12.25;2.80;;;;;;;15.74;100.00;100623.69;5096093;28;20525;-74
2022/09/09 10:01:25;;;;;;;12.32;3.22;;;;;;;15.58;100.00;100623.81;5080838;28;20071;-76
2022/09/09 10:03:56;;;;;;;8.45;2.75;;;;;;;15.30;100.00;100630.50;5095099;28;20031;-77
2022/09/09 10:06:33;;;;;;;7.82;2.70;;;;;;;15.12;100.00;100621.84;5095810;28;20359;-76
2022/09/09 10:08:59;;;;;;;10.18;2.65;;;;;;;14.99;100.00;100628.59;5094945;28;20480;-78
2022/09/09 10:11:52;;;;;;;9.57;3.08;;;;;;;14.88;100.00;100631.66;5076762;28;20081;-78
2022/09/09 10:14:39;;;;;;;14.73;3.70;;;;;;;14.78;100.00;100633.72;5094917;28;20349;-76
2022/09/09 10:17:13;;;;;;;6.32;3.22;;;;;;;14.69;100.00;100640.94;5094418;28;20024;-75
2022/09/09 10:19:46;;;;;;;15.77;4.75;;;;;;;14.71;100.00;100633.53;5094874;28;20032;-78
2022/09/09 10:22:26;;;;;;;9.45;3.75;;;;;;;14.74;100.00;100635.88;5094996;28;20100;-76
2022/09/09 10:25:02;;;;;;;10.55;3.70;;;;;;;14.77;100.00;100640.06;5094372;28;20459;-77
2022/09/09 10:27:33;;;;;;;9.57;3.42;;;;;;;14.78;100.00;100645.25;5094612;28;20030;-76
2022/09/09 10:30:14;;;;;;;12.25;3.85;;;;;;;14.79;100.00;100633.53;5094655;28;20031;-76
2022/09/09 10:33:10;;;;;;;13.63;4.05;;;;;;;14.78;100.00;100631.03;5094576;28;20127;-77
2022/09/09 10:35:42;;;;;;;11.68;3.50;;;;;;;14.70;100.00;100637.22;5093960;28;20457;-76
2022/09/09 10:38:15;;;;;;;11.77;3.65;;;;;;;14.64;100.00;100629.88;5094715;28;20028;-79
2022/09/09 10:41:03;;;;;;;7.90;3.67;;;;;;;14.59;100.00;100637.56;5094232;28;20028;-75
2022/09/09 10:43:39;;;;;;;10.60;3.55;;;;;;;14.62;100.00;100630.06;5094506;28;20032;-77
2022/09/09 10:46:22;;;;;;;11.15;3.40;;;;;;;14.63;100.00;100626.38;5095057;28;20035;-74
2022/09/09 10:49:18;;;;;;;6.82;3.40;;;;;;;15.03;100.00;100623.72;5093934;28;20024;-78
2022/09/09 10:51:55;;;;;;;10.75;3.72;;;;;;;15.56;100.00;100623.97;5094340;28;20078;-76
2022/09/09 10:54:42;;;;;;;12.93;3.53;;;;;;;15.98;100.00;100622.69;5076460;28;20112;-76
2022/09/09 10:57:17;;;;;;;8.45;3.20;;;;;;;16.14;100.00;100626.28;5094666;28;20032;-76
2022/09/09 10:59:50;;;;;;;5.60;2.63;;;;;;;16.24;100.00;100615.28;5094469;28;20058;-76
2022/09/09 11:02:27;;;;;;;7.97;2.60;;;;;;;16.17;100.00;100613.31;5093970;28;20099;-76
2022/09/09 11:05:09;;;;;;;9.50;2.95;;;;;;;16.18;100.00;100616.84;5094587;28;20081;-76
2022/09/09 11:07:56;;;;;;;8.52;2.65;;;;;;;16.21;100.00;100616.47;5094518;28;20085;-76
2022/09/09 11:10:25;;;;;;;10.05;2.72;;;;;;;16.28;100.00;100613.91;5094479;28;20189;-76
2022/09/09 11:12:55;;;;;;;7.72;2.40;;;;;;;16.40;100.00;100613.25;5093661;28;20035;-77
2022/09/09 11:15:28;;;;;;;8.85;2.42;;;;;;;16.45;100.00;100615.44;5093387;28;20068;-77
2022/09/09 11:17:58;;;;;;;5.95;2.25;;;;;;;16.49;100.00;100619.41;5094035;28;20032;-77
2022/09/09 11:20:25;;;;;;;6.85;2.13;;;;;;;16.53;100.00;100611.81;5093960;28;20032;-75
2022/09/09 11:23:12;;;;;;;7.50;2.60;;;;;;;16.57;100.00;100613.94;5093984;28;20046;-77
2022/09/09 11:25:47;;;;;;;7.45;2.28;;;;;;;16.56;100.00;100624.88;5093454;28;20107;-77
2022/09/09 11:28:30;;;;;;;5.95;2.42;;;;;;;16.49;100.00;100614.03;5093593;28;20208;-76
2022/09/09 11:31:18;;;;;;;5.85;2.25;;;;;;;16.35;100.00;100626.41;5093490;28;20028;-75
2022/09/09 11:34:03;;;;;;;10.60;2.60;;;;;;;16.14;100.00;100631.66;5093671;28;20043;-76